Time;durP1;ratioP1;P1;durP2;ratioP2;P2;SDS_P1;SDS_P2;PMS_P1;PMS_P2;Temp;Humidity;BMP_temperature;BMP_pressure;BME280_temperature;BME280_humidity;BME280_pressure;Samples;Min_cycle;Max_cycle;Signal;HPM_P1;HPM_P2
2022/12/09 00:00:12;;;;;;;2.67;1.80;;;;;;;;;;20826123;28;20214;-69
2022/12/09 00:10:14;;;;;;;3.30;1.80;;;;;;;;;;20826026;28;20461;-69
2022/12/09 00:20:16;;;;;;;3.07;1.53;;;;;;;;;;20824085;28;20265;-69
2022/12/09 00:30:18;;;;;;;3.27;1.90;;;;;;;;;;20825250;28;20622;-69
2022/12/09 00:40:20;;;;;;;3.10;1.90;;;;;;;;;;20824988;28;20210;-69
2022/12/09 00:50:22;;;;;;;2.40;1.50;;;;;;;;;;20802274;28;20280;-68
2022/12/09 01:00:23;;;;;;;2.13;1.63;;;;;;;;;;20802662;28;20273;-69
2022/12/09 01:10:25;;;;;;;2.60;2.00;;;;;;;;;;20818467;28;20253;-69
2022/12/09 01:20:27;;;;;;;3.10;2.07;;;;;;;;;;20814512;28;20599;-69
2022/12/09 01:30:29;;;;;;;2.80;1.90;;;;;;;;;;20820904;28;20222;-68
2022/12/09 01:40:31;;;;;;;3.40;2.23;;;;;;;;;;20819012;28;20237;-69
2022/12/09 01:50:34;;;;;;;3.10;1.90;;;;;;;;;;20799239;28;20579;-68
2022/12/09 02:00:36;;;;;;;3.40;1.97;;;;;;;;;;20814308;28;20222;-68
2022/12/09 02:10:57;;;;;;;2.43;1.67;;;;;;;;;;20807453;28;20210;-69
2022/12/09 02:21:20;;;;;;;2.17;1.40;;;2.90;99.90;;;;;;20782173;28;20218;-69
2022/12/09 02:31:25;;;;;;;3.73;2.07;;;;;;;;;;20799199;28;20245;-69
2022/12/09 02:41:29;;;;;;;2.97;2.20;;;;;;;;;;20825996;22;20282;-65
2022/12/09 02:51:33;;;;;;;2.73;1.73;;;;;;;;;;20724146;28;20649;-65
2022/12/09 03:01:48;;;;;;;3.30;2.30;;;;;;;;;;20686528;28;20281;-65
2022/12/09 03:11:51;;;;;;;2.87;1.80;;;2.70;99.90;;;;;;20716014;28;20250;-65
2022/12/09 03:21:56;;;;;;;4.27;2.10;;;2.80;99.90;;;;;;20715315;28;20227;-65
2022/12/09 03:31:59;;;;;;;3.20;2.00;;;;;;;;;;20731751;28;20286;-65
2022/12/09 03:42:03;;;;;;;2.27;1.57;;;;;;;;;;20717040;28;20222;-65
2022/12/09 03:52:25;;;;;;;2.40;1.37;;;;;;;;;;20714213;28;20276;-65
2022/12/09 04:02:27;;;;;;;3.30;2.27;;;;;;;;;;20730166;28;20223;-65
2022/12/09 04:12:29;;;;;;;5.23;3.50;;;;;;;;;;20699873;28;20878;-65
2022/12/09 04:22:31;;;;;;;2.30;1.87;;;;;;;;;;20711220;28;20324;-65
2022/12/09 04:32:33;;;;;;;1.97;1.60;;;;;;;;;;20711760;28;20257;-65
2022/12/09 04:42:36;;;;;;;1.90;1.30;;;;;;;;;;20740189;28;20235;-65
2022/12/09 04:52:38;;;;;;;7.50;1.80;;;;;;;;;;20740700;28;20231;-66
2022/12/09 05:02:40;;;;;;;2.30;1.63;;;;;;;;;;20709201;28;20231;-66
2022/12/09 05:12:43;;;;;;;2.60;1.80;;;;;;;;;;20726807;28;20289;-66
2022/12/09 05:22:44;;;;;;;1.47;1.07;;;;;;;;;;20693407;28;20223;-66
2022/12/09 05:32:46;;;;;;;2.20;1.37;;;;;;;;;;20697945;28;20223;-66
2022/12/09 05:42:49;;;;;;;3.83;2.57;;;;;;;;;;20707855;28;20974;-65
2022/12/09 05:52:50;;;;;;;2.27;1.60;;;;;;;;;;20716892;28;20603;-65
2022/12/09 06:02:52;;;;;;;3.03;1.80;;;;;;;;;;20716968;28;20632;-65
2022/12/09 06:12:54;;;;;;;1.70;1.27;;;1.50;99.90;;;;;;20690314;28;20577;-65
2022/12/09 06:22:56;;;;;;;2.47;2.13;;;;;;;;;;20705376;28;20215;-65
2022/12/09 06:32:59;;;;;;;2.73;1.80;;;1.70;99.90;;;;;;20708522;28;20554;-64
2022/12/09 06:43:01;;;;;;;3.00;1.70;;;;;;;;;;20710940;28;20694;-64
2022/12/09 06:53:03;;;;;;;3.70;1.90;;;2.00;99.90;;;;;;20722012;28;20235;-64
2022/12/09 07:03:05;;;;;;;4.60;2.90;;;;;;;;;;20728979;28;20227;-68
2022/12/09 07:13:08;;;;;;;2.57;1.53;;;;;;;;;;20726427;28;20287;-66
2022/12/09 07:23:10;;;;;;;2.63;1.97;;;;;;;;;;20703039;28;20223;-65
2022/12/09 07:33:11;;;;;;;4.47;2.30;;;;;;;;;;20714565;28;20633;-66
2022/12/09 07:43:13;;;;;;;2.70;1.70;;;;;;;;;;20731946;28;20913;-65
2022/12/09 07:53:15;;;;;;;3.30;2.40;;;;;;;;;;20722073;28;20216;-65
2022/12/09 08:03:17;;;;;;;2.77;2.27;;;;;;;;;;20723240;28;20281;-65
2022/12/09 08:13:19;;;;;;;2.57;1.93;;;;;;;;;;20726379;28;20215;-65
2022/12/09 08:23:22;;;;;;;3.20;2.30;;;;;;;;;;20748084;28;20234;-65
2022/12/09 08:33:24;;;;;;;3.80;2.37;;;;;;;;;;20731648;28;20227;-66
2022/12/09 08:43:26;;;;;;;3.33;2.30;;;;;;;;;;20731463;22;20675;-68
2022/12/09 08:53:28;;;;;;;2.60;2.33;;;;;;;;;;20732033;28;20211;-68
2022/12/09 09:03:30;;;;;;;3.50;2.40;;;;;;;;;;20720085;28;20254;-69
2022/12/09 09:13:31;;;;;;;3.27;2.10;;;;;;;;;;20735720;28;20261;-68
2022/12/09 09:23:34;;;;;;;3.70;2.37;;;;;;;;;;20725832;28;20239;-68
2022/12/09 09:33:36;;;;;;;4.07;2.40;;;;;;;;;;20726317;28;20253;-68
2022/12/09 09:43:38;;;;;;;3.77;2.43;;;2.30;99.90;;;;;;20709435;28;20211;-68
2022/12/09 09:53:41;;;;;;;3.57;2.30;;;;;;;;;;20715385;28;20722;-69
2022/12/09 10:04:11;;;;;;;2.87;1.90;;;2.40;99.90;;;;;;20714907;28;20255;-68
2022/12/09 10:14:19;;;;;;;3.13;2.23;;;;;;;;;;20723664;28;20223;-67
2022/12/09 10:24:23;;;;;;;3.53;2.07;;;;;;;;;;20730461;28;20371;-68
2022/12/09 10:34:25;;;;;;;3.10;2.03;;;;;;;;;;20731382;28;20211;-68
2022/12/09 10:44:27;;;;;;;4.90;2.60;;;;;;;;;;20744427;28;20226;-68
2022/12/09 10:54:55;;;;;;;3.00;2.20;;;;;;;;;;20699219;28;20211;-68
2022/12/09 11:05:21;;;;;;;4.17;2.27;;;2.90;99.90;;;;;;20734129;28;20215;-68
2022/12/09 11:15:28;;;;;;;2.70;1.93;;;2.80;99.90;;;;;;20747878;28;20222;-68
2022/12/09 11:25:33;;;;;;;5.33;2.03;;;;;;;;;;20758939;28;20769;-68
2022/12/09 11:35:44;;;;;;;3.53;2.60;;;;;;;;;;20751171;28;20297;-68
2022/12/09 11:45:46;;;;;;;5.93;2.90;;;;;;;;;;20734994;28;20230;-68
2022/12/09 11:56:10;;;;;;;3.47;2.03;;;3.30;99.90;;;;;;20716373;28;20239;-68
2022/12/09 12:06:21;;;;;;;3.03;1.77;;;3.50;99.90;;;;;;20737890;28;20694;-69
2022/12/09 12:16:46;;;;;;;3.20;1.90;;;3.50;99.90;;;;;;20754099;28;20644;-69
2022/12/09 12:27:03;;;;;;;3.87;2.43;;;;;;;;;;20755623;28;20261;-69
2022/12/09 12:37:35;;;;;;;2.37;1.77;;;3.50;99.90;;;;;;20744974;28;20265;-69
2022/12/09 12:48:11;;;;;;;2.43;1.93;;;3.50;99.90;;;;;;20756686;28;20230;-69
2022/12/09 12:58:28;;;;;;;3.97;2.50;;;3.40;99.90;;;;;;20739727;28;20222;-69
2022/12/09 13:08:38;;;;;;;4.93;2.33;;;3.30;99.90;;;;;;20723297;28;20287;-69
2022/12/09 13:18:40;;;;;;;4.20;2.90;;;;;;;;;;20729771;28;20231;-69
2022/12/09 13:28:48;;;;;;;6.03;2.10;;;;;;;;;;20739981;28;20223;-69
2022/12/09 13:38:51;;;;;;;2.43;2.10;;;;;;;;;;20692595;28;20697;-69
2022/12/09 13:48:56;;;;;;;3.50;2.10;;;;;;;;;;20761699;28;20275;-69
2022/12/09 13:59:21;;;;;;;2.53;2.00;;;3.00;99.90;;;;;;20649826;28;20813;-69
2022/12/09 14:09:45;;;;;;;5.10;3.13;;;3.00;99.90;;;;;;20723854;28;20497;-69
2022/12/09 14:19:49;;;;;;;3.17;2.47;;;3.10;99.90;;;;;;20731732;28;20265;-68
2022/12/09 14:29:54;;;;;;;3.00;1.93;;;;;;;;;;20741530;28;20280;-69
2022/12/09 14:40:04;;;;;;;6.13;4.40;;;;;;;;;;20743295;28;20838;-68
2022/12/09 14:50:18;;;;;;;6.10;4.20;;;2.90;99.90;;;;;;20751018;28;20505;-68
2022/12/09 15:00:47;;;;;;;6.40;3.97;;;;;;;;;;20741401;28;20436;-68
2022/12/09 15:10:49;;;;;;;6.03;4.00;;;;;;;;;;20767183;23;20467;-69
2022/12/09 15:20:55;;;;;;;5.90;4.23;;;;;;;;;;20746683;28;20441;-69
2022/12/09 15:30:59;;;;;;;6.13;3.85;;;;;;;;;;20781524;28;20436;-72
2022/12/09 15:51:25;;;;;;;2.60;2.03;;;;;;;;;;20786260;28;20215;-67
2022/12/09 16:01:29;;;;;;;2.60;1.80;;;;;;;;;;20799667;28;20227;-67
2022/12/09 16:11:47;;;;;;;2.70;1.87;;;2.70;99.90;;;;;;20835080;28;20563;-67
2022/12/09 16:21:52;;;;;;;2.23;1.60;;;2.80;99.90;;;;;;20826255;28;20594;-67
2022/12/09 16:32:29;;;;;;;3.00;2.00;;;2.90;99.90;;;;;;20879970;28;20291;-67
2022/12/09 16:42:32;;;;;;;10.40;7.07;;;;;;;;;;20851077;28;20230;-68
2022/12/09 16:52:34;;;;;;;3.10;2.30;;;;;;;;;;20815839;28;20213;-67
2022/12/09 17:02:38;;;;;;;4.10;1.80;;;;;;;;;;20726587;28;20292;-67
2022/12/09 17:12:40;;;;;;;3.40;2.13;;;;;;;;;;20828518;28;20230;-67
2022/12/09 17:22:42;;;;;;;3.63;2.10;;;;;;;;;;20811777;28;20276;-66
2022/12/09 17:32:45;;;;;;;4.03;1.87;;;;;;;;;;20805971;28;20648;-67
2022/12/09 17:42:48;;;;;;;2.70;1.80;;;;;;;;;;20771970;28;20288;-67
2022/12/09 17:52:51;;;;;;;3.60;2.60;;;;;;;;;;20712845;28;21475;-65
2022/12/09 18:02:53;;;;;;;3.00;2.03;;;;;;;;;;20720944;28;20305;-67
2022/12/09 18:12:55;;;;;;;1.67;1.33;;;;;;;;;;20754613;28;20769;-67
2022/12/09 18:22:56;;;;;;;2.83;1.77;;;;;;;;;;20828720;28;20289;-66
2022/12/09 18:32:59;;;;;;;3.37;2.33;;;;;;;;;;20816944;28;20702;-66
2022/12/09 18:43:01;;;;;;;4.00;2.70;;;;;;;;;;20801104;28;20230;-68
2022/12/09 18:53:03;;;;;;;2.20;1.80;;;;;;;;;;20809710;28;20207;-67
2022/12/09 19:03:04;;;;;;;3.17;2.13;;;;;;;;;;20789468;28;20767;-67
2022/12/09 19:13:06;;;;;;;3.13;1.90;;;;;;;;;;20805182;28;20210;-66
2022/12/09 19:23:08;;;;;;;1.47;1.30;;;;;;;;;;20826095;28;20776;-66
2022/12/09 19:33:10;;;;;;;3.10;2.00;;;;;;;;;;20725947;28;20212;-66
2022/12/09 19:43:12;;;;;;;1.80;1.27;;;;;;;;;;20743149;28;20219;-66
2022/12/09 19:53:14;;;;;;;2.47;1.83;;;;;;;;;;20794229;28;20283;-66
2022/12/09 20:03:15;;;;;;;2.50;1.67;;;;;;;;;;20843076;28;20636;-66
2022/12/09 20:13:17;;;;;;;3.07;1.53;;;;;;;;;;20829245;28;20214;-68
2022/12/09 20:23:19;;;;;;;3.70;1.90;;;;;;;;;;20839149;28;20257;-68
2022/12/09 20:33:21;;;;;;;2.97;1.80;;;;;;;;;;20834008;28;20226;-68
2022/12/09 20:43:23;;;;;;;3.60;1.70;;;;;;;;;;20899095;28;20229;-68
2022/12/09 20:53:25;;;;;;;3.63;2.07;;;;;;;;;;20899149;28;20577;-68
2022/12/09 21:03:27;;;;;;;2.43;1.80;;;;;;;;;;20897681;28;20303;-69
2022/12/09 21:13:29;;;;;;;2.40;1.50;;;;;;;;;;20905074;28;20218;-68
2022/12/09 21:23:31;;;;;;;2.67;1.80;;;2.40;99.90;;;;;;20901113;28;20229;-68
2022/12/09 21:33:34;;;;;;;3.43;2.40;;;;;;;;;;20864741;22;20280;-63
2022/12/09 21:43:36;;;;;;;2.97;1.87;;;;;;;;;;20819784;28;20230;-63
2022/12/09 21:53:39;;;;;;;1.97;1.23;;;3.20;99.90;;;;;;20805247;28;20226;-63
2022/12/09 22:03:42;;;;;;;3.03;1.77;;;;;;;;;;20802986;28;20222;-63
2022/12/09 22:13:44;;;;;;;2.50;1.70;;;;;;;;;;20769948;28;20351;-63
2022/12/09 22:23:46;;;;;;;3.23;2.50;;;;;;;;;;20802979;28;20231;-63
2022/12/09 22:33:50;;;;;;;2.93;1.87;;;;;;;;;;20791112;28;20222;-63
2022/12/09 22:43:54;;;;;;;3.20;2.07;;;2.30;99.90;;;;;;20782683;28;20284;-63
2022/12/09 22:53:56;;;;;;;3.60;1.67;;;;;;;;;;20811064;28;20269;-63
2022/12/09 23:04:00;;;;;;;3.70;2.30;;;;;;;;;;20802078;28;20249;-63
2022/12/09 23:14:03;;;;;;;2.60;1.73;;;;;;;;;;20817809;28;20222;-63
2022/12/09 23:24:06;;;;;;;2.40;1.67;;;;;;;;;;20801437;28;20226;-63
2022/12/09 23:34:08;;;;;;;4.00;2.60;;;;;;;;;;20800687;28;20628;-63
2022/12/09 23:44:13;;;;;;;4.33;1.70;;;2.30;99.90;;;;;;20816143;28;20694;-63
2022/12/09 23:54:16;;;;;;;2.90;2.03;;;2.10;99.90;;;;;;20783401;28;20252;-63
